| time (UTC) | temp C | wind direction | speed KPH | gust KPH | rain 1hr cm | rain 24hr cm | rain mn cm | humidity % | barometer mb |
| 20260503034534 | 22 | 289 | 3.2 | 14.5 | 0.00 | 1.12 | 1.12 | 88 | 1015.1 |
| 20260503033038 | 22 | 266 | 4.8 | 8.0 | 0.00 | 1.12 | 1.12 | 88 | 1014.7 |
| 20260503031535 | 22 | 272 | 3.2 | 12.9 | 0.10 | 1.12 | 1.12 | 88 | 1014.3 |
| 20260503030036 | 22 | 229 | 8.0 | 14.5 | 0.25 | 1.12 | 1.12 | 88 | 1014.0 |
| 20260503024536 | 22 | 238 | 6.4 | 11.3 | 0.28 | 1.12 | 1.12 | 88 | 1014.0 |
| 20260503023034 | 22 | 200 | 6.4 | 14.5 | 0.28 | 1.12 | 1.12 | 88 | 1012.9 |
| 20260503021534 | 22 | 226 | 6.4 | 14.5 | 0.15 | 0.99 | 0.99 | 88 | 1014.1 |
| 20260503020042 | 22 | 252 | 9.7 | 16.1 | 0.08 | 0.86 | 0.86 | 88 | 1014.5 |
| 20260503014532 | 22 | 259 | 8.0 | 17.7 | 0.05 | 0.84 | 0.84 | 88 | 1014.3 |
| 20260503013036 | 22 | 226 | 11.3 | 19.3 | 0.05 | 0.84 | 0.84 | 87 | 1012.9 |
| 20260503011545 | 22 | 269 | 6.4 | 14.5 | 0.05 | 0.84 | 0.84 | 87 | 1014.0 |
| 20260503010037 | 22 | 222 | 3.2 | 9.7 | 0.03 | 0.79 | 0.79 | 87 | 1013.4 |
| 20260503004532 | 22 | 213 | 3.2 | 6.4 | 0.05 | 0.79 | 0.79 | 87 | 1013.5 |
| 20260503003037 | 22 | 238 | 0.0 | 3.2 | 0.05 | 0.79 | 0.79 | 86 | 1013.4 |
| 20260503001537 | 23 | 238 | 1.6 | 14.5 | 0.25 | 0.79 | 0.79 | 86 | 1013.5 |
| 20260503000055 | 23 | 251 | 9.7 | 14.5 | 0.20 | 0.74 | 0.74 | 86 | 1013.7 |
| 20260502234537 | 23 | 135 | 3.2 | 8.0 | 0.20 | 0.74 | 0.74 | 85 | 1013.2 |
| 20260502233038 | 23 | 0 | 0.0 | 4.8 | 0.20 | 0.74 | 0.74 | 85 | 1013.6 |
| 20260502231539 | 23 | 323 | 1.6 | 6.4 | 0.00 | 0.53 | 0.53 | 85 | 1013.9 |
| 20260502230038 | 23 | 32 | 1.6 | 9.7 | 0.46 | 0.53 | 0.53 | 85 | 1013.6 |
| 20260502224537 | 23 | 45 | 4.8 | 16.1 | 0.53 | 0.53 | 0.53 | 84 | 1013.2 |
| 20260502223035 | 23 | 346 | 8.0 | 24.1 | 0.53 | 0.53 | 0.53 | 83 | 1013.3 |
| 20260502221533 | 24 | 22 | 11.3 | 19.3 | 0.53 | 0.53 | 0.53 | 80 | 1013.1 |
| 20260502220048 | 27 | 327 | 16.1 | 30.6 | 0.00 | 0.00 | 0.00 | 79 | 1012.9 |
| 20260502214537 | 27 | 304 | 12.9 | 24.1 | 0.00 | 0.00 | 0.00 | 79 | 1011.9 |
| 20260502213041 | 27 | 279 | 17.7 | 30.6 | 0.00 | 0.00 | 0.00 | 78 | 1012.3 |
| 20260502211539 | 27 | 282 | 12.9 | 25.7 | 0.00 | 0.00 | 0.00 | 77 | 1012.2 |
| 20260502210036 | 28 | 236 | 14.5 | 24.1 | 0.00 | 0.00 | 0.00 | 76 | 1011.7 |
| 20260502204538 | 28 | 272 | 14.5 | 22.5 | 0.00 | 0.00 | 0.00 | 74 | 1011.6 |
| 20260502203038 | 29 | 280 | 17.7 | 27.4 | 0.00 | 0.00 | 0.00 | 73 | 1011.8 |
| 20260502201545 | 29 | 294 | 17.7 | 30.6 | 0.00 | 0.00 | 0.00 | 73 | 1011.8 |
| 20260502200051 | 29 | 264 | 14.5 | 32.2 | 0.00 | 0.00 | 0.00 | 72 | 1011.7 |
| 20260502194540 | 29 | 296 | 17.7 | 33.8 | 0.00 | 0.00 | 0.00 | 72 | 1011.9 |
| 20260502193039 | 29 | 254 | 17.7 | 38.6 | 0.00 | 0.00 | 0.00 | 73 | 1011.9 |
| 20260502191540 | 29 | 334 | 19.3 | 32.2 | 0.00 | 0.00 | 0.00 | 73 | 1012.3 |
| 20260502190046 | 30 | 277 | 17.7 | 25.7 | 0.00 | 0.00 | 0.00 | 74 | 1012.4 |
| 20260502184539 | 30 | 313 | 16.1 | 30.6 | 0.00 | 0.00 | 0.00 | 75 | 1012.7 |
| 20260502183038 | 29 | 289 | 20.9 | 32.2 | 0.00 | 0.00 | 0.00 | 74 | 1012.9 |
| 20260502181538 | 29 | 301 | 19.3 | 32.2 | 0.00 | 0.00 | 0.00 | 75 | 1013.1 |
| 20260502163041 | 29 | 291 | 20.9 | 37.0 | 0.00 | 0.00 | 0.00 | 76 | 1013.4 |
| 20260502161535 | 29 | 277 | 22.5 | 41.8 | 0.00 | 0.00 | 0.00 | 75 | 1013.2 |
| 20260502151557 | 29 | 269 | 20.9 | 37.0 | 0.00 | 0.00 | 0.00 | 75 | 1012.8 |
| 20260502123039 | 23 | 219 | 9.7 | 16.1 | 0.00 | 0.00 | 0.00 | 87 | 1011.8 |
| 20260502121539 | 22 | 166 | 6.4 | 14.5 | 0.00 | 0.00 | 0.00 | 87 | 1011.8 |
| 20260502114538 | 21 | 213 | 6.4 | 14.5 | 0.00 | 0.00 | 0.00 | 87 | 1011.6 |
| 20260502113048 | 21 | 219 | 8.0 | 12.9 | 0.00 | 0.00 | 0.00 | 87 | 1011.6 |
| 20260502111540 | 21 | 215 | 6.4 | 12.9 | 0.00 | 0.00 | 0.00 | 86 | 1011.6 |
| 20260502110038 | 21 | 219 | 3.2 | 8.0 | 0.00 | 0.00 | 0.00 | 86 | 1011.6 |
| 20260502104536 | 21 | 190 | 6.4 | 11.3 | 0.00 | 0.00 | 0.00 | 86 | 1011.5 |
| 20260502103032 | 21 | 169 | 4.8 | 9.7 | 0.00 | 0.00 | 0.00 | 85 | 1011.5 |
| 20260502101537 | 21 | 174 | 3.2 | 8.0 | 0.00 | 0.00 | 0.00 | 85 | 1011.8 |
| 20260502090106 | 21 | 209 | 3.2 | 12.9 | 0.00 | 0.00 | 0.00 | 86 | 1011.8 |
| 20260502070050 | 21 | 0 | 0.0 | 0.0 | 0.00 | 0.00 | 0.00 | 84 | 1011.8 |
| 20260502064554 | 22 | 0 | 0.0 | 1.6 | 0.00 | 0.00 | 0.00 | 84 | 1011.9 |
| 20260502063048 | 22 | 0 | 0.0 | 3.2 | 0.00 | 0.00 | 0.00 | 84 | 1012.1 |
| 20260502061535 | 22 | 0 | 0.0 | 4.8 | 0.00 | 0.00 | 0.00 | 84 | 1012.1 |
| 20260502060058 | 22 | 0 | 0.0 | 0.0 | 0.00 | 0.00 | 0.00 | 83 | 1012.2 |
| 20260502054536 | 22 | 0 | 0.0 | 1.6 | 0.00 | 0.00 | 0.00 | 83 | 1012.3 |
| 20260502053032 | 22 | 103 | 0.0 | 0.0 | 0.00 | 0.00 | 0.00 | 83 | 1012.7 |
| 20260502051532 | 22 | 0 | 0.0 | 0.0 | 0.00 | 0.00 | 0.00 | 82 | 1012.8 |
| 20260502050040 | 22 | 0 | 0.0 | 0.0 | 0.00 | 0.00 | 0.00 | 81 | 1012.8 |
| 20260502044535 | 22 | 0 | 0.0 | 1.6 | 0.00 | 0.00 | 0.00 | 81 | 1012.9 |
| 20260502043034 | 22 | 0 | 0.0 | 1.6 | 0.00 | 0.00 | 0.00 | 81 | 1012.9 |
| 20260502041532 | 22 | 0 | 0.0 | 3.2 | 0.00 | 0.00 | 0.00 | 81 | 1012.9 |
| 20260502040032 | 23 | 0 | 0.0 | 0.0 | 0.00 | 0.00 | 0.00 | 80 | 1012.9 |